createdAt,value
2022-11-30T00:00:54.422Z,51.215748
2022-11-30T00:01:54.665Z,51.215778
2022-11-30T00:02:54.493Z,51.215775
2022-11-30T00:03:54.402Z,51.215797
2022-11-30T00:04:54.375Z,51.215782
2022-11-30T00:05:54.379Z,51.215900
2022-11-30T00:06:54.373Z,51.215874
2022-11-30T00:07:54.413Z,51.215866
2022-11-30T00:08:54.346Z,51.215889
2022-11-30T00:09:54.346Z,51.215942
2022-11-30T00:10:54.331Z,51.215988
2022-11-30T00:11:54.318Z,51.216053
2022-11-30T00:12:54.312Z,51.215984
2022-11-30T00:13:55.318Z,51.215965
2022-11-30T00:14:54.327Z,51.215942
2022-11-30T00:15:54.296Z,51.215630
2022-11-30T00:16:54.336Z,51.215843
2022-11-30T00:17:54.283Z,51.215866
2022-11-30T00:18:54.269Z,51.215893
2022-11-30T00:19:54.284Z,51.215858
2022-11-30T00:20:54.256Z,51.215847
2022-11-30T00:21:54.247Z,51.215981
2022-11-30T00:22:54.243Z,51.216076
2022-11-30T00:23:54.226Z,51.216019
2022-11-30T00:24:54.218Z,51.216038
2022-11-30T00:25:54.226Z,51.215981
2022-11-30T00:26:54.198Z,51.216045
2022-11-30T00:27:54.206Z,51.216122
2022-11-30T00:28:54.194Z,51.216038
2022-11-30T00:29:54.191Z,51.216007
2022-11-30T00:30:54.266Z,51.215797
2022-11-30T00:31:54.170Z,51.215824
2022-11-30T00:32:54.179Z,51.216038
2022-11-30T00:33:54.169Z,51.215813
2022-11-30T00:34:54.159Z,51.215946
2022-11-30T00:35:54.159Z,51.215977
2022-11-30T00:36:54.143Z,51.216042
2022-11-30T00:37:54.137Z,51.216057
2022-11-30T00:38:54.126Z,51.216122
2022-11-30T00:39:54.134Z,51.215996
2022-11-30T00:40:54.158Z,51.215965
2022-11-30T00:41:54.177Z,51.215839
2022-11-30T00:42:54.098Z,51.216244
2022-11-30T00:43:54.093Z,51.216312
2022-11-30T00:44:54.077Z,51.216175
2022-11-30T00:45:54.100Z,51.216164
2022-11-30T00:46:54.076Z,51.216209
2022-11-30T00:47:54.063Z,51.216274
2022-11-30T00:48:54.058Z,51.216042
2022-11-30T00:49:54.060Z,51.215855
2022-11-30T00:50:54.073Z,51.215645
2022-11-30T00:51:54.062Z,51.215721
2022-11-30T00:52:54.028Z,51.215813
2022-11-30T00:53:54.050Z,51.216034
2022-11-30T00:54:54.020Z,51.216221
2022-11-30T00:55:54.057Z,51.216171
2022-11-30T00:56:54.026Z,51.216064
2022-11-30T00:57:53.995Z,51.216080
2022-11-30T00:58:53.990Z,51.216194
2022-11-30T00:59:53.989Z,51.216114
2022-11-30T01:00:54.112Z,51.216084
2022-11-30T01:01:54.262Z,51.216137
2022-11-30T01:02:53.996Z,51.216171
2022-11-30T01:03:53.956Z,51.216171
2022-11-30T01:04:53.946Z,51.216103
2022-11-30T01:05:53.955Z,51.216156
2022-11-30T01:06:53.934Z,51.216087
2022-11-30T01:07:53.979Z,51.216072
2022-11-30T01:08:53.933Z,51.216034
2022-11-30T01:09:53.905Z,51.216068
2022-11-30T01:10:53.924Z,51.216106
2022-11-30T01:11:53.947Z,51.216209
2022-11-30T01:12:53.902Z,51.216164
2022-11-30T01:13:53.918Z,51.216190
2022-11-30T01:14:53.883Z,51.216133
2022-11-30T01:15:53.926Z,51.216084
2022-11-30T01:16:56.382Z,51.216072
2022-11-30T01:17:54.856Z,51.216171
2022-11-30T01:18:53.841Z,51.216228
2022-11-30T01:19:53.875Z,51.216183
2022-11-30T01:20:53.829Z,51.216183
2022-11-30T01:21:53.812Z,51.216087
2022-11-30T01:22:53.819Z,51.215996
2022-11-30T01:23:53.810Z,51.215950
2022-11-30T01:24:53.810Z,51.216019
2022-11-30T01:25:53.798Z,51.215996
2022-11-30T01:26:53.793Z,51.216167
2022-11-30T01:27:53.786Z,51.216053
2022-11-30T01:28:53.781Z,51.216034
2022-11-30T01:29:53.770Z,51.216084
2022-11-30T01:30:53.857Z,51.216103
2022-11-30T01:31:53.747Z,51.215996
2022-11-30T01:32:54.747Z,51.216129
2022-11-30T01:33:53.740Z,51.216141
2022-11-30T01:34:53.729Z,51.216076
2022-11-30T01:35:53.729Z,51.215996
2022-11-30T01:36:53.735Z,51.215984
2022-11-30T01:37:53.702Z,51.216122
2022-11-30T01:38:53.701Z,51.216099
2022-11-30T01:39:53.709Z,51.216118
2022-11-30T01:40:53.690Z,51.216114
2022-11-30T01:41:53.700Z,51.216106
2022-11-30T01:42:53.679Z,51.216103
2022-11-30T01:43:53.658Z,51.216202
2022-11-30T01:44:53.680Z,51.216034
2022-11-30T01:45:53.691Z,51.216087
2022-11-30T01:46:53.657Z,51.216194
2022-11-30T01:47:53.645Z,51.216064
2022-11-30T01:48:53.638Z,51.216148
2022-11-30T01:49:53.638Z,51.216164
2022-11-30T01:50:53.614Z,51.216110
2022-11-30T01:51:53.616Z,51.216072
2022-11-30T01:52:53.606Z,51.216099
2022-11-30T01:53:53.591Z,51.216156
2022-11-30T01:54:53.585Z,51.216064
2022-11-30T01:55:53.952Z,51.216099
2022-11-30T01:56:53.573Z,51.216103
2022-11-30T01:57:53.594Z,51.216015
2022-11-30T01:58:53.570Z,51.215996
2022-11-30T01:59:53.549Z,51.216064
2022-11-30T02:00:53.553Z,51.216129
2022-11-30T02:01:53.589Z,51.216141
2022-11-30T02:02:53.602Z,51.216183
2022-11-30T02:03:53.535Z,51.216122
2022-11-30T02:04:53.626Z,51.216114
2022-11-30T02:05:53.521Z,51.216042
2022-11-30T02:06:53.510Z,51.215988
2022-11-30T02:07:53.619Z,51.215973
2022-11-30T02:08:53.505Z,51.216110
2022-11-30T02:09:53.493Z,51.216133
2022-11-30T02:10:53.491Z,51.216240
2022-11-30T02:11:53.485Z,51.216015
2022-11-30T02:12:53.477Z,51.216145
2022-11-30T02:13:53.474Z,51.216118
2022-11-30T02:14:53.522Z,51.216030
2022-11-30T02:15:53.482Z,51.216087
2022-11-30T02:16:53.442Z,51.216145
2022-11-30T02:17:53.465Z,51.216114
2022-11-30T02:18:53.433Z,51.216175
2022-11-30T02:19:53.453Z,51.216103
2022-11-30T02:20:53.417Z,51.216232
2022-11-30T02:21:53.409Z,51.216221
2022-11-30T02:22:53.420Z,51.216019
2022-11-30T02:23:53.398Z,51.215981
2022-11-30T02:24:53.394Z,51.216000
2022-11-30T02:25:53.373Z,51.215965
2022-11-30T02:26:53.377Z,51.216042
2022-11-30T02:27:53.367Z,51.216122
2022-11-30T02:28:53.370Z,51.215992
2022-11-30T02:29:53.370Z,51.215969
2022-11-30T02:30:53.375Z,51.215977
2022-11-30T02:31:53.333Z,51.216133
2022-11-30T02:32:53.341Z,51.216137
2022-11-30T02:33:53.325Z,51.216118
2022-11-30T02:34:53.325Z,51.216194
2022-11-30T02:35:55.272Z,51.216137
2022-11-30T02:36:54.310Z,51.216137
2022-11-30T02:37:53.306Z,51.216122
2022-11-30T02:38:53.298Z,51.216167
2022-11-30T02:39:53.285Z,51.216076
2022-11-30T02:40:53.292Z,51.216129
2022-11-30T02:41:53.277Z,51.216080
2022-11-30T02:42:53.265Z,51.216099
2022-11-30T02:43:53.261Z,51.216061
2022-11-30T02:44:53.255Z,51.216076
2022-11-30T02:45:53.298Z,51.216022
2022-11-30T02:46:53.246Z,51.216072
2022-11-30T02:47:53.233Z,51.215958
2022-11-30T02:48:53.225Z,51.216007
2022-11-30T02:49:53.218Z,51.216034
2022-11-30T02:50:53.333Z,51.216026
2022-11-30T02:51:53.204Z,51.216076
2022-11-30T02:52:53.181Z,51.216000
2022-11-30T02:53:54.193Z,51.216103
2022-11-30T02:54:53.181Z,51.216152
2022-11-30T02:55:53.189Z,51.216198
2022-11-30T02:56:53.167Z,51.216187
2022-11-30T02:57:53.156Z,51.216053
2022-11-30T02:58:53.153Z,51.216053
2022-11-30T02:59:53.145Z,51.216145
2022-11-30T03:00:53.140Z,51.215885
2022-11-30T03:01:53.160Z,51.215904
2022-11-30T03:02:53.163Z,51.216068
2022-11-30T03:03:53.120Z,51.216118
2022-11-30T03:04:53.112Z,51.216019
2022-11-30T03:05:53.117Z,51.216019
2022-11-30T03:06:53.105Z,51.216049
2022-11-30T03:07:53.191Z,51.216175
2022-11-30T03:08:53.099Z,51.216080
2022-11-30T03:09:53.089Z,51.216022
2022-11-30T03:10:53.071Z,51.216110
2022-11-30T03:11:53.069Z,51.216053
2022-11-30T03:12:53.083Z,51.215942
2022-11-30T03:13:53.057Z,51.215878
2022-11-30T03:14:53.060Z,51.215893
2022-11-30T03:15:53.164Z,51.216026
2022-11-30T03:16:53.031Z,51.215954
2022-11-30T03:17:53.011Z,51.215992
2022-11-30T03:18:53.039Z,51.216141
2022-11-30T03:19:53.048Z,51.216106
2022-11-30T03:20:53.040Z,51.216160
2022-11-30T03:21:53.012Z,51.215992
2022-11-30T03:22:53.020Z,51.215950
2022-11-30T03:23:53.016Z,51.215904
2022-11-30T03:24:52.980Z,51.215988
2022-11-30T03:25:52.964Z,51.216080
2022-11-30T03:26:52.955Z,51.216057
2022-11-30T03:27:52.960Z,51.216068
2022-11-30T03:28:52.955Z,51.216164
2022-11-30T03:29:52.939Z,51.216125
2022-11-30T03:30:52.971Z,51.216175
2022-11-30T03:31:52.922Z,51.216095
2022-11-30T03:32:52.913Z,51.216286
2022-11-30T03:33:52.913Z,51.216133
2022-11-30T03:34:52.917Z,51.216011
2022-11-30T03:35:52.897Z,51.216049
2022-11-30T03:36:52.881Z,51.216064
2022-11-30T03:37:53.881Z,51.216175
2022-11-30T03:38:52.921Z,51.216099
2022-11-30T03:39:57.974Z,51.216137
2022-11-30T03:40:54.861Z,51.216183
2022-11-30T03:41:52.853Z,51.215977
2022-11-30T03:42:52.845Z,51.216049
2022-11-30T03:43:52.845Z,51.216125
2022-11-30T03:44:52.849Z,51.216103
2022-11-30T03:45:52.834Z,51.216125
2022-11-30T03:46:52.841Z,51.216118
2022-11-30T03:47:52.816Z,51.216118
2022-11-30T03:48:52.833Z,51.216091
2022-11-30T03:49:52.800Z,51.216152
2022-11-30T03:50:52.797Z,51.216084
2022-11-30T03:51:52.791Z,51.216057
2022-11-30T03:52:52.807Z,51.216068
2022-11-30T03:53:52.777Z,51.216030
2022-11-30T03:54:52.765Z,51.216061
2022-11-30T03:55:52.757Z,51.216087
2022-11-30T03:56:52.750Z,51.215984
2022-11-30T03:57:52.758Z,51.215969
2022-11-30T03:58:52.728Z,51.215961
2022-11-30T03:59:52.728Z,51.216072
2022-11-30T04:00:52.741Z,51.216084
2022-11-30T04:01:52.744Z,51.216160
2022-11-30T04:02:52.767Z,51.216167
2022-11-30T04:03:52.699Z,51.216095
2022-11-30T04:04:52.684Z,51.216110
2022-11-30T04:05:52.701Z,51.216103
2022-11-30T04:06:52.695Z,51.216087
2022-11-30T04:07:52.696Z,51.216129
2022-11-30T04:08:52.665Z,51.216221
2022-11-30T04:09:52.660Z,51.216278
2022-11-30T04:10:52.652Z,51.216061
2022-11-30T04:11:52.657Z,51.216064
2022-11-30T04:12:52.633Z,51.216187
2022-11-30T04:13:52.644Z,51.216129
2022-11-30T04:14:52.620Z,51.216137
2022-11-30T04:15:52.756Z,51.216217
2022-11-30T04:16:52.614Z,51.216160
2022-11-30T04:17:52.597Z,51.216232
2022-11-30T04:18:52.620Z,51.216187
2022-11-30T04:19:52.581Z,51.216038
2022-11-30T04:20:52.581Z,51.216122
2022-11-30T04:21:52.573Z,51.216068
2022-11-30T04:22:52.568Z,51.215996
2022-11-30T04:23:52.565Z,51.216026
2022-11-30T04:24:52.569Z,51.216103
2022-11-30T04:25:52.568Z,51.215691
2022-11-30T04:26:52.532Z,51.215736
2022-11-30T04:27:52.533Z,51.215706
2022-11-30T04:28:52.524Z,51.215897
2022-11-30T04:29:52.533Z,51.216141
2022-11-30T04:30:52.509Z,51.216026
2022-11-30T04:31:52.504Z,51.216106
2022-11-30T04:32:52.497Z,51.216053
2022-11-30T04:33:52.501Z,51.216045
2022-11-30T04:34:52.482Z,51.215996
2022-11-30T04:35:52.477Z,51.215942
2022-11-30T04:36:56.076Z,51.215996
2022-11-30T04:37:54.464Z,51.216061
2022-11-30T04:38:52.469Z,51.216038
2022-11-30T04:39:52.470Z,51.216022
2022-11-30T04:40:52.448Z,51.216114
2022-11-30T04:41:52.445Z,51.216087
2022-11-30T04:42:52.426Z,51.216087
2022-11-30T04:43:52.422Z,51.216110
2022-11-30T04:44:52.427Z,51.216194
2022-11-30T04:45:52.416Z,51.216156
2022-11-30T04:46:52.483Z,51.216198
2022-11-30T04:47:52.401Z,51.216213
2022-11-30T04:48:52.384Z,51.216244
2022-11-30T04:49:52.388Z,51.216091
2022-11-30T04:50:52.397Z,51.216125
2022-11-30T04:51:52.366Z,51.216087
2022-11-30T04:52:52.363Z,51.216114
2022-11-30T04:53:52.359Z,51.216038
2022-11-30T04:54:52.354Z,51.216061
2022-11-30T04:55:52.376Z,51.216087
2022-11-30T04:56:52.339Z,51.216118
2022-11-30T04:57:52.322Z,51.216019
2022-11-30T04:58:52.321Z,51.215904
2022-11-30T04:59:52.324Z,51.215775
2022-11-30T05:00:52.320Z,51.215649
2022-11-30T05:01:52.334Z,51.215786
2022-11-30T05:02:53.274Z,51.215748
2022-11-30T05:03:53.279Z,51.215794
2022-11-30T05:04:52.358Z,51.215935
2022-11-30T05:05:52.284Z,51.215862
2022-11-30T05:06:52.265Z,51.216042
2022-11-30T05:07:52.342Z,51.216042
2022-11-30T05:08:52.247Z,51.216145
2022-11-30T05:09:52.240Z,51.216148
2022-11-30T05:10:53.218Z,51.216240
2022-11-30T05:11:53.244Z,51.216049
2022-11-30T05:12:52.221Z,51.215889
2022-11-30T05:13:52.208Z,51.215981
2022-11-30T05:14:52.197Z,51.216190
2022-11-30T05:15:52.234Z,51.216122
2022-11-30T05:16:52.200Z,51.216213
2022-11-30T05:17:52.192Z,51.216248
2022-11-30T05:18:52.188Z,51.216194
2022-11-30T05:19:52.163Z,51.216057
2022-11-30T05:20:52.156Z,51.216141
2022-11-30T05:21:52.163Z,51.216034
2022-11-30T05:22:52.164Z,51.216114
2022-11-30T05:23:52.176Z,51.216286
2022-11-30T05:24:52.139Z,51.216164
2022-11-30T05:25:52.123Z,51.216057
2022-11-30T05:26:52.112Z,51.215958
2022-11-30T05:27:53.122Z,51.215836
2022-11-30T05:28:52.120Z,51.216038
2022-11-30T05:29:52.099Z,51.216080
2022-11-30T05:30:52.091Z,51.216137
2022-11-30T05:31:52.159Z,51.216236
2022-11-30T05:32:52.092Z,51.216080
2022-11-30T05:33:52.072Z,51.216106
2022-11-30T05:34:52.277Z,51.216209
2022-11-30T05:35:53.069Z,51.216103
2022-11-30T05:36:52.051Z,51.215729
2022-11-30T05:37:52.064Z,51.215557
2022-11-30T05:38:52.043Z,51.215546
2022-11-30T05:39:52.038Z,51.215569
2022-11-30T05:40:52.027Z,51.215611
2022-11-30T05:41:52.021Z,51.216129
2022-11-30T05:42:53.071Z,51.216385
2022-11-30T05:43:52.044Z,51.216297
2022-11-30T05:44:52.003Z,51.216053
2022-11-30T05:45:51.997Z,51.216103
2022-11-30T05:46:52.018Z,51.216103
2022-11-30T05:47:51.986Z,51.216095
2022-11-30T05:48:51.980Z,51.216103
2022-11-30T05:49:51.955Z,51.216133
2022-11-30T05:50:51.956Z,51.216045
2022-11-30T05:51:51.957Z,51.216110
2022-11-30T05:52:52.004Z,51.216091
2022-11-30T05:53:51.945Z,51.216183
2022-11-30T05:54:51.932Z,51.216160
2022-11-30T05:55:51.916Z,51.216118
2022-11-30T05:56:54.992Z,51.216148
2022-11-30T05:57:52.931Z,51.216045
2022-11-30T05:58:51.901Z,51.216145
2022-11-30T05:59:51.918Z,51.216213
2022-11-30T06:00:51.920Z,51.216198
2022-11-30T06:01:52.159Z,51.216206
2022-11-30T06:02:52.031Z,51.216148
2022-11-30T06:03:51.929Z,51.216087
2022-11-30T06:04:52.063Z,51.216000
2022-11-30T06:05:51.876Z,51.216103
2022-11-30T06:06:51.853Z,51.216000
2022-11-30T06:07:51.938Z,51.216061
2022-11-30T06:08:51.835Z,51.216084
2022-11-30T06:09:51.828Z,51.216003
2022-11-30T06:10:51.843Z,51.216122
2022-11-30T06:11:51.823Z,51.216053
2022-11-30T06:12:51.808Z,51.216015
2022-11-30T06:13:51.787Z,51.216049
2022-11-30T06:14:51.795Z,51.216164
2022-11-30T06:15:51.807Z,51.216213
2022-11-30T06:16:51.810Z,51.216244
2022-11-30T06:17:51.776Z,51.216133
2022-11-30T06:18:51.763Z,51.216049
2022-11-30T06:19:51.748Z,51.216114
2022-11-30T06:20:51.787Z,51.216026
2022-11-30T06:21:51.743Z,51.216118
2022-11-30T06:22:51.740Z,51.216095
2022-11-30T06:23:51.718Z,51.216145
2022-11-30T06:24:51.719Z,51.216026
2022-11-30T06:25:51.711Z,51.215912
2022-11-30T06:26:51.701Z,51.215721
2022-11-30T06:27:51.693Z,51.215790
2022-11-30T06:28:51.715Z,51.216011
2022-11-30T06:29:51.683Z,51.216064
2022-11-30T06:30:51.679Z,51.216125
2022-11-30T06:31:51.750Z,51.216206
2022-11-30T06:32:51.661Z,51.216007
2022-11-30T06:33:51.672Z,51.215981
2022-11-30T06:34:51.644Z,51.216045
2022-11-30T06:35:51.631Z,51.216011
2022-11-30T06:36:51.628Z,51.216106
2022-11-30T06:37:51.624Z,51.215931
2022-11-30T06:38:51.640Z,51.215958
2022-11-30T06:40:05.900Z,51.215996
2022-11-30T06:40:53.607Z,51.215946
2022-11-30T06:41:54.610Z,51.216007
2022-11-30T06:42:52.595Z,51.216049
2022-11-30T06:43:51.585Z,51.216030
2022-11-30T06:44:51.608Z,51.215988
2022-11-30T06:45:51.583Z,51.216167
2022-11-30T06:46:51.572Z,51.216160
2022-11-30T06:47:51.560Z,51.216000
2022-11-30T06:48:51.550Z,51.215919
2022-11-30T06:49:51.543Z,51.215736
2022-11-30T06:50:51.557Z,51.216068
2022-11-30T06:51:51.515Z,51.216152
2022-11-30T06:52:51.511Z,51.216106
2022-11-30T06:53:51.507Z,51.216068
2022-11-30T06:54:51.504Z,51.216156
2022-11-30T06:55:51.516Z,51.216141
2022-11-30T06:56:51.498Z,51.216156
2022-11-30T06:57:51.479Z,51.216179
2022-11-30T06:58:51.520Z,51.216290
2022-11-30T06:59:51.507Z,51.216164
2022-11-30T07:00:51.517Z,51.216084
2022-11-30T07:01:51.494Z,51.216095
2022-11-30T07:02:51.471Z,51.216152
2022-11-30T07:03:51.495Z,51.216152
2022-11-30T07:04:51.428Z,51.216129
2022-11-30T07:05:51.432Z,51.216076
2022-11-30T07:06:51.420Z,51.216061
2022-11-30T07:07:51.471Z,51.216118
2022-11-30T07:08:51.407Z,51.216114
2022-11-30T07:09:51.400Z,51.216091
2022-11-30T07:10:51.399Z,51.215965
2022-11-30T07:11:51.399Z,51.215874
2022-11-30T07:12:51.385Z,51.216034
2022-11-30T07:13:51.387Z,51.215931
2022-11-30T07:14:51.372Z,51.216049
2022-11-30T07:15:51.360Z,51.216106
2022-11-30T07:16:51.371Z,51.216068
2022-11-30T07:17:51.356Z,51.216045
2022-11-30T07:18:51.351Z,51.216106
2022-11-30T07:19:51.341Z,51.216042
2022-11-30T07:20:51.328Z,51.216084
2022-11-30T07:21:51.332Z,51.216118
2022-11-30T07:22:51.311Z,51.216133
2022-11-30T07:23:56.279Z,51.216003
2022-11-30T07:24:52.303Z,51.216064
2022-11-30T07:25:51.292Z,51.216110
2022-11-30T07:26:51.297Z,51.216080
2022-11-30T07:27:51.295Z,51.216095
2022-11-30T07:28:51.267Z,51.216160
2022-11-30T07:29:51.260Z,51.216171
2022-11-30T07:30:51.254Z,51.216221
2022-11-30T07:31:51.423Z,51.216187
2022-11-30T07:32:51.231Z,51.216141
2022-11-30T07:33:51.236Z,51.216129
2022-11-30T07:34:51.348Z,51.216099
2022-11-30T07:35:51.215Z,51.216095
2022-11-30T07:36:51.218Z,51.216141
2022-11-30T07:37:51.199Z,51.216187
2022-11-30T07:38:51.203Z,51.216183
2022-11-30T07:39:51.186Z,51.216148
2022-11-30T07:40:51.179Z,51.216145
2022-11-30T07:41:51.172Z,51.216106
2022-11-30T07:42:51.188Z,51.216019
2022-11-30T07:43:51.163Z,51.216022
2022-11-30T07:44:55.388Z,51.216034
2022-11-30T07:45:53.190Z,51.215961
2022-11-30T07:46:51.139Z,51.216022
2022-11-30T07:47:51.151Z,51.216167
2022-11-30T07:48:51.124Z,51.216152
2022-11-30T07:49:51.120Z,51.216118
2022-11-30T07:50:51.114Z,51.216080
2022-11-30T07:51:51.100Z,51.216068
2022-11-30T07:52:51.158Z,51.215988
2022-11-30T07:53:51.089Z,51.215889
2022-11-30T07:54:51.109Z,51.215897
2022-11-30T07:55:56.744Z,51.216026
2022-11-30T07:56:53.091Z,51.215778
2022-11-30T07:57:51.065Z,51.215996
2022-11-30T07:58:51.049Z,51.216011
2022-11-30T07:59:51.049Z,51.216064
2022-11-30T08:00:51.105Z,51.216022
2022-11-30T08:01:51.129Z,51.215981
2022-11-30T08:02:51.031Z,51.215919
2022-11-30T08:03:51.020Z,51.215931
2022-11-30T08:04:51.453Z,51.215988
2022-11-30T08:05:50.995Z,51.216015
2022-11-30T08:06:50.996Z,51.215984
2022-11-30T08:07:51.022Z,51.215961
2022-11-30T08:08:50.995Z,51.215919
2022-11-30T08:09:51.008Z,51.216019
2022-11-30T08:10:51.028Z,51.215870
2022-11-30T08:11:50.951Z,51.215816
2022-11-30T08:12:50.946Z,51.215889
2022-11-30T08:13:50.952Z,51.216000
2022-11-30T08:15:18.836Z,51.215939
2022-11-30T08:15:52.934Z,51.215950
2022-11-30T08:16:50.948Z,51.215988
2022-11-30T08:17:50.910Z,51.215996
2022-11-30T08:18:50.895Z,51.216042
2022-11-30T08:19:50.906Z,51.216045
2022-11-30T08:20:50.884Z,51.215996
2022-11-30T08:21:50.879Z,51.216068
2022-11-30T08:22:50.870Z,51.216003
2022-11-30T08:23:50.919Z,51.216091
2022-11-30T08:24:51.084Z,51.216099
2022-11-30T08:25:50.855Z,51.216164
2022-11-30T08:26:50.891Z,51.215996
2022-11-30T08:27:50.828Z,51.215939
2022-11-30T08:28:51.829Z,51.215984
2022-11-30T08:29:50.834Z,51.216084
2022-11-30T08:30:50.891Z,51.216053
2022-11-30T08:31:50.804Z,51.216057
2022-11-30T08:32:50.812Z,51.215908
2022-11-30T08:33:50.798Z,51.215843
2022-11-30T08:34:50.944Z,51.215904
2022-11-30T08:35:50.803Z,51.215969
2022-11-30T08:36:51.944Z,51.215832
2022-11-30T08:37:51.775Z,51.215843
2022-11-30T08:38:50.783Z,51.215954
2022-11-30T08:39:50.748Z,51.215977
2022-11-30T08:40:50.752Z,51.216000
2022-11-30T08:41:50.748Z,51.215900
2022-11-30T08:42:50.736Z,51.216095
2022-11-30T08:43:50.748Z,51.216106
2022-11-30T08:44:50.715Z,51.216045
2022-11-30T08:45:54.506Z,51.216084
2022-11-30T08:46:53.077Z,51.216110
2022-11-30T08:47:51.704Z,51.216095
2022-11-30T08:48:50.687Z,51.216122
2022-11-30T08:49:50.688Z,51.216057
2022-11-30T08:50:50.714Z,51.215981
2022-11-30T08:52:52.664Z,51.215969
2022-11-30T08:53:50.661Z,51.215927
2022-11-30T08:54:51.176Z,51.215992
2022-11-30T08:55:50.648Z,51.216042
2022-11-30T08:56:50.660Z,51.216099
2022-11-30T08:57:50.628Z,51.216099
2022-11-30T08:58:50.632Z,51.216129
2022-11-30T08:59:50.607Z,51.216129
2022-11-30T09:01:50.613Z,51.215939
2022-11-30T09:02:50.673Z,51.215954
2022-11-30T09:03:50.585Z,51.216110
2022-11-30T09:04:50.585Z,51.216080
2022-11-30T09:05:50.598Z,51.216068
2022-11-30T09:06:50.565Z,51.216011
2022-11-30T09:07:50.635Z,51.215927
2022-11-30T09:08:50.553Z,51.215897
2022-11-30T09:09:50.549Z,51.215740
2022-11-30T09:10:50.552Z,51.215778
2022-11-30T09:11:50.538Z,51.215939
2022-11-30T09:12:50.563Z,51.215981
2022-11-30T09:13:50.529Z,51.216022
2022-11-30T09:14:56.027Z,51.215923
2022-11-30T09:15:52.580Z,51.215992
2022-11-30T09:16:50.504Z,51.216049
2022-11-30T09:17:50.507Z,51.216038
2022-11-30T09:18:50.512Z,51.216080
2022-11-30T09:19:50.487Z,51.216045
2022-11-30T09:20:50.472Z,51.216118
2022-11-30T09:21:52.245Z,51.215954
2022-11-30T09:22:51.453Z,51.215942
2022-11-30T09:23:50.467Z,51.215828
2022-11-30T09:24:50.795Z,51.215870
2022-11-30T09:25:50.433Z,51.216057
2022-11-30T09:26:50.439Z,51.216084
2022-11-30T09:27:50.417Z,51.216278
2022-11-30T09:28:50.456Z,51.216209
2022-11-30T09:29:50.415Z,51.215927
2022-11-30T09:30:50.488Z,51.215816
2022-11-30T09:31:50.391Z,51.215706
2022-11-30T09:32:50.441Z,51.215782
2022-11-30T09:33:50.391Z,51.215981
2022-11-30T09:34:51.027Z,51.215881
2022-11-30T09:35:50.371Z,51.216076
2022-11-30T09:36:50.378Z,51.216030
2022-11-30T09:37:50.353Z,51.215820
2022-11-30T09:38:50.351Z,51.216011
2022-11-30T09:39:50.361Z,51.215912
2022-11-30T09:40:50.335Z,51.216091
2022-11-30T09:41:50.346Z,51.216030
2022-11-30T09:42:50.327Z,51.215977
2022-11-30T09:43:50.306Z,51.215481
2022-11-30T09:44:50.620Z,51.215553
2022-11-30T09:45:50.356Z,51.216198
2022-11-30T09:46:50.298Z,51.216141
2022-11-30T09:47:50.275Z,51.216125
2022-11-30T09:48:50.273Z,51.216152
2022-11-30T09:49:50.266Z,51.216110
2022-11-30T09:50:50.260Z,51.216080
2022-11-30T09:51:50.258Z,51.216068
2022-11-30T09:52:50.252Z,51.216099
2022-11-30T09:53:50.234Z,51.216114
2022-11-30T09:54:50.437Z,51.216133
2022-11-30T09:55:50.262Z,51.216049
2022-11-30T09:56:50.218Z,51.216084
2022-11-30T09:57:50.243Z,51.216129
2022-11-30T09:58:50.195Z,51.216064
2022-11-30T09:59:50.194Z,51.216049
2022-11-30T10:00:50.196Z,51.216003
2022-11-30T10:01:55.368Z,51.216068
2022-11-30T10:02:52.373Z,51.216022
2022-11-30T10:03:51.179Z,51.216015
2022-11-30T10:04:50.295Z,51.215954
2022-11-30T10:05:50.152Z,51.215969
2022-11-30T10:06:50.159Z,51.216095
2022-11-30T10:07:50.231Z,51.216061
2022-11-30T10:08:50.995Z,51.216003
2022-11-30T10:10:09.364Z,51.215969
2022-11-30T10:10:52.115Z,51.215981
2022-11-30T10:11:50.131Z,51.216038
2022-11-30T10:12:50.114Z,51.216076
2022-11-30T10:13:50.116Z,51.216072
2022-11-30T10:14:50.476Z,51.216022
2022-11-30T10:15:50.129Z,51.216064
2022-11-30T10:16:50.078Z,51.216164
2022-11-30T10:17:50.070Z,51.216095
2022-11-30T10:18:50.057Z,51.216091
2022-11-30T10:19:50.067Z,51.215992
2022-11-30T10:20:50.068Z,51.216022
2022-11-30T10:21:50.058Z,51.216156
2022-11-30T10:22:50.046Z,51.216129
2022-11-30T10:23:50.039Z,51.216057
2022-11-30T10:24:50.275Z,51.215965
2022-11-30T10:25:50.132Z,51.215965
2022-11-30T10:26:50.009Z,51.215992
2022-11-30T10:27:50.017Z,51.215977
2022-11-30T10:28:50.115Z,51.216000
2022-11-30T10:29:49.982Z,51.215870
2022-11-30T10:30:50.158Z,51.216034
2022-11-30T10:31:49.978Z,51.216057
2022-11-30T10:32:49.979Z,51.216064
2022-11-30T10:33:50.020Z,51.216118
2022-11-30T10:34:50.175Z,51.216118
2022-11-30T10:35:49.947Z,51.216347
2022-11-30T10:36:49.964Z,51.216049
2022-11-30T10:37:49.965Z,51.216087
2022-11-30T10:38:49.950Z,51.216003
2022-11-30T10:39:49.931Z,51.216179
2022-11-30T10:40:49.932Z,51.216194
2022-11-30T10:41:49.918Z,51.216263
2022-11-30T10:42:49.905Z,51.216236
2022-11-30T10:43:49.904Z,51.216091
2022-11-30T10:44:50.284Z,51.216152
2022-11-30T10:45:49.890Z,51.216057
2022-11-30T10:46:49.896Z,51.216072
2022-11-30T10:47:50.141Z,51.216053
2022-11-30T10:48:49.860Z,51.216053
2022-11-30T10:49:49.870Z,51.216080
2022-11-30T10:50:49.843Z,51.216118
2022-11-30T10:51:49.855Z,51.216080
2022-11-30T10:52:49.854Z,51.216022
2022-11-30T10:53:49.834Z,51.216183
2022-11-30T10:54:49.994Z,51.216179
2022-11-30T10:55:49.830Z,51.216068
2022-11-30T10:56:49.811Z,51.216152
2022-11-30T10:57:49.830Z,51.216091
2022-11-30T10:58:49.790Z,51.216152
2022-11-30T10:59:50.293Z,51.216057
2022-11-30T11:00:49.778Z,51.216080
2022-11-30T11:01:49.806Z,51.216068
2022-11-30T11:02:49.841Z,51.216045
2022-11-30T11:03:49.777Z,51.215824
2022-11-30T11:04:49.755Z,51.216022
2022-11-30T11:05:49.750Z,51.216057
2022-11-30T11:06:49.765Z,51.216164
2022-11-30T11:07:49.781Z,51.216206
2022-11-30T11:08:49.734Z,51.216064
2022-11-30T11:09:49.922Z,51.216160
2022-11-30T11:10:49.728Z,51.216167
2022-11-30T11:11:49.722Z,51.216114
2022-11-30T11:12:49.730Z,51.215996
2022-11-30T11:13:49.694Z,51.215755
2022-11-30T11:14:49.691Z,51.215889
2022-11-30T11:15:49.716Z,51.215965
2022-11-30T11:16:49.677Z,51.216015
2022-11-30T11:17:49.670Z,51.215973
2022-11-30T11:18:49.702Z,51.215954
2022-11-30T11:19:49.928Z,51.215965
2022-11-30T11:20:53.967Z,51.216198
2022-11-30T11:21:50.638Z,51.216080
2022-11-30T11:22:49.641Z,51.215988
2022-11-30T11:23:49.641Z,51.216076
2022-11-30T11:24:49.619Z,51.216038
2022-11-30T11:25:49.610Z,51.216087
2022-11-30T11:26:49.616Z,51.216095